createdAt,value
2018-11-22T00:01:32.400Z,12.23
2018-11-22T00:04:20.033Z,10.30
2018-11-22T00:07:07.749Z,10.27
2018-11-22T00:09:55.433Z,11.63
2018-11-22T00:12:43.009Z,11.57
2018-11-22T00:15:31.038Z,10.00
2018-11-22T00:18:18.897Z,12.37
2018-11-22T00:20:47.470Z,10.77
2018-11-22T00:23:35.132Z,11.80
2018-11-22T00:26:22.787Z,10.50
2018-11-22T00:29:10.458Z,10.40
2018-11-22T00:31:58.681Z,12.40
2018-11-22T00:34:45.705Z,12.37
2018-11-22T00:37:33.302Z,11.87
2018-11-22T00:40:21.088Z,12.10
2018-11-22T00:43:08.746Z,11.90
2018-11-22T00:45:37.304Z,11.93
2018-11-22T00:48:24.968Z,12.67
2018-11-22T00:51:12.650Z,12.10
2018-11-22T00:54:00.343Z,12.73
2018-11-22T00:56:48.143Z,14.43
2018-11-22T00:59:35.806Z,13.53
2018-11-22T01:02:23.466Z,12.47
2018-11-22T01:05:11.081Z,12.87
2018-11-22T01:07:58.813Z,12.00
2018-11-22T01:10:46.470Z,12.77
2018-11-22T01:13:34.175Z,12.37
2018-11-22T01:16:02.752Z,12.50
2018-11-22T01:18:50.515Z,14.20
2018-11-22T01:21:38.132Z,12.00
2018-11-22T01:24:25.760Z,11.40
2018-11-22T01:27:13.361Z,12.57
2018-11-22T01:30:01.033Z,12.97
2018-11-22T01:32:48.621Z,12.87
2018-11-22T01:35:36.348Z,12.30
2018-11-22T01:38:23.993Z,10.37
2018-11-22T01:41:11.646Z,12.13
2018-11-22T01:43:59.273Z,11.87
2018-11-22T01:46:46.888Z,12.80
2018-11-22T01:49:34.506Z,10.93
2018-11-22T01:52:22.096Z,11.47
2018-11-22T01:54:50.676Z,10.93
2018-11-22T01:57:19.267Z,12.10
2018-11-22T02:00:06.993Z,11.93
2018-11-22T02:02:35.663Z,13.13
2018-11-22T02:05:04.686Z,11.53
2018-11-22T02:07:52.239Z,12.53
2018-11-22T02:10:22.004Z,12.37
2018-11-22T02:12:50.603Z,12.37
2018-11-22T02:15:38.381Z,12.07
2018-11-22T02:18:26.002Z,13.20
2018-11-22T02:20:54.852Z,11.97
2018-11-22T02:23:42.393Z,13.57
2018-11-22T02:26:29.965Z,12.63
2018-11-22T02:28:58.578Z,13.23
2018-11-22T02:34:02.172Z,14.33
2018-11-22T02:36:31.019Z,12.47
2018-11-22T02:38:59.754Z,13.80
2018-11-22T02:41:28.248Z,13.40
2018-11-22T02:44:15.835Z,12.90
2018-11-22T02:47:03.543Z,14.10
2018-11-22T02:49:51.096Z,12.83
2018-11-22T02:52:38.761Z,14.17
2018-11-22T02:55:26.663Z,13.60
2018-11-22T02:58:14.337Z,12.97
2018-11-22T03:01:01.944Z,13.50
2018-11-22T03:03:49.808Z,14.30
2018-11-22T03:06:37.357Z,12.17
2018-11-22T03:09:27.922Z,13.30
2018-11-22T03:12:15.514Z,14.20
2018-11-22T03:15:03.213Z,14.63
2018-11-22T03:17:50.769Z,14.60
2018-11-22T03:22:53.464Z,14.67
2018-11-22T03:25:22.312Z,13.57
2018-11-22T03:28:09.901Z,15.33
2018-11-22T03:30:57.497Z,14.10
2018-11-22T03:33:45.157Z,13.87
2018-11-22T03:36:32.757Z,14.97
2018-11-22T03:39:20.441Z,15.87
2018-11-22T03:42:08.246Z,14.33
2018-11-22T03:44:55.815Z,14.73
2018-11-22T03:47:43.401Z,16.10
2018-11-22T03:50:13.893Z,18.87
2018-11-22T03:53:01.686Z,18.80
2018-11-22T03:55:49.315Z,17.70
2018-11-22T03:58:36.856Z,20.00
2018-11-22T04:01:24.794Z,19.57
2018-11-22T04:04:12.405Z,20.53
2018-11-22T04:07:00.019Z,19.80
2018-11-22T04:09:47.649Z,21.10
2018-11-22T04:12:35.322Z,19.93
2018-11-22T04:15:22.857Z,21.67
2018-11-22T04:18:10.629Z,20.50
2018-11-22T04:20:58.272Z,22.07
2018-11-22T04:23:45.835Z,18.63
2018-11-22T04:26:33.446Z,21.67
2018-11-22T04:29:21.163Z,23.07
2018-11-22T04:31:49.690Z,21.70
2018-11-22T04:34:37.308Z,20.97
2018-11-22T04:37:24.905Z,21.47
2018-11-22T04:40:12.650Z,21.00
2018-11-22T04:43:00.284Z,20.93
2018-11-22T04:45:47.945Z,22.73
2018-11-22T04:48:35.522Z,21.20
2018-11-22T04:51:23.271Z,22.20
2018-11-22T04:54:10.893Z,20.90
2018-11-22T04:56:58.650Z,21.63
2018-11-22T04:59:46.263Z,22.10
2018-11-22T05:02:33.923Z,21.57
2018-11-22T05:05:02.490Z,22.67
2018-11-22T05:07:50.128Z,21.73
2018-11-22T05:10:37.729Z,21.63
2018-11-22T05:13:25.747Z,20.77
2018-11-22T05:16:13.309Z,20.57
2018-11-22T05:19:00.898Z,21.50
2018-11-22T05:21:48.472Z,23.30
2018-11-22T05:24:36.130Z,22.00
2018-11-22T05:27:24.141Z,22.00
2018-11-22T05:30:11.797Z,19.60
2018-11-22T05:32:59.333Z,21.33
2018-11-22T05:38:21.148Z,20.30
2018-11-22T05:41:08.814Z,22.20
2018-11-22T05:43:56.474Z,21.03
2018-11-22T05:46:44.232Z,23.53
2018-11-22T05:49:31.846Z,21.33
2018-11-22T05:52:19.502Z,20.00
2018-11-22T05:55:07.160Z,20.67
2018-11-22T05:57:54.817Z,21.20
2018-11-22T06:00:42.489Z,21.70
2018-11-22T06:03:30.144Z,20.77
2018-11-22T06:06:17.734Z,22.40
2018-11-22T06:11:39.494Z,22.33
2018-11-22T06:14:27.142Z,20.83
2018-11-22T06:17:16.394Z,21.73
2018-11-22T06:20:02.723Z,22.30
2018-11-22T06:22:50.307Z,21.00
2018-11-22T06:25:37.977Z,22.03
2018-11-22T06:28:25.676Z,19.93
2018-11-22T06:31:13.341Z,22.67
2018-11-22T06:34:01.025Z,21.30
2018-11-22T06:36:48.660Z,19.60
2018-11-22T06:39:17.288Z,21.20
2018-11-22T06:42:04.905Z,21.07
2018-11-22T06:44:52.499Z,20.10
2018-11-22T06:47:40.185Z,19.83
2018-11-22T06:50:28.506Z,21.53
2018-11-22T06:53:16.341Z,22.03
2018-11-22T06:56:03.893Z,21.17
2018-11-22T06:58:51.497Z,20.93
2018-11-22T07:01:39.069Z,21.40
2018-11-22T07:04:26.835Z,20.70
2018-11-22T07:07:14.473Z,19.80
2018-11-22T07:10:02.112Z,20.20
2018-11-22T07:12:49.709Z,20.83
2018-11-22T07:15:37.410Z,20.17
2018-11-22T07:18:25.324Z,20.30
2018-11-22T07:21:13.043Z,20.40
2018-11-22T07:23:41.604Z,19.70
2018-11-22T07:26:29.289Z,20.07
2018-11-22T07:29:16.866Z,21.27
2018-11-22T07:32:04.607Z,22.77
2018-11-22T07:34:52.230Z,21.70
2018-11-22T07:39:55.821Z,22.37
2018-11-22T07:42:24.549Z,21.33
2018-11-22T07:45:12.186Z,21.47
2018-11-22T07:48:00.056Z,20.60
2018-11-22T07:50:28.705Z,21.63
2018-11-22T07:53:16.374Z,21.70
2018-11-22T07:56:03.910Z,20.30
2018-11-22T07:58:51.721Z,19.73
2018-11-22T08:01:39.229Z,19.50
2018-11-22T08:04:26.897Z,20.80
2018-11-22T08:07:14.477Z,20.07
2018-11-22T08:10:02.105Z,19.20
2018-11-22T08:12:30.755Z,18.90
2018-11-22T08:15:18.544Z,20.53
2018-11-22T08:18:06.088Z,18.20
2018-11-22T08:20:53.837Z,18.80
2018-11-22T08:23:41.530Z,18.73
2018-11-22T08:26:29.118Z,19.30
2018-11-22T08:29:16.739Z,18.87
2018-11-22T08:32:04.326Z,22.30
2018-11-22T08:34:51.918Z,19.10
2018-11-22T08:37:39.686Z,18.53
2018-11-22T08:40:29.025Z,17.83
2018-11-22T08:43:16.718Z,18.27
2018-11-22T08:45:45.300Z,20.03
2018-11-22T08:48:33.040Z,20.67
2018-11-22T08:51:20.602Z,18.07
2018-11-22T08:54:08.488Z,19.93
2018-11-22T08:56:56.049Z,21.00
2018-11-22T08:59:43.742Z,18.60
2018-11-22T09:02:31.326Z,17.77
2018-11-22T09:05:19.113Z,18.87
2018-11-22T09:08:06.714Z,19.50
2018-11-22T09:10:54.305Z,19.80
2018-11-22T09:13:41.953Z,20.63
2018-11-22T09:16:29.718Z,19.00
2018-11-22T09:19:17.431Z,19.60
2018-11-22T09:22:05.181Z,18.70
2018-11-22T09:24:52.893Z,22.37
2018-11-22T09:27:40.652Z,18.23
2018-11-22T09:30:30.140Z,18.53
2018-11-22T09:33:18.053Z,18.80
2018-11-22T09:36:05.760Z,21.50
2018-11-22T09:38:53.609Z,18.70
2018-11-22T09:41:41.327Z,16.83
2018-11-22T09:44:29.092Z,18.23
2018-11-22T09:47:16.788Z,18.30
2018-11-22T09:50:04.679Z,19.20
2018-11-22T09:52:52.472Z,18.40
2018-11-22T09:55:40.132Z,18.73
2018-11-22T09:58:27.930Z,17.73
2018-11-22T10:01:15.724Z,18.03
2018-11-22T10:04:03.393Z,18.17
2018-11-22T10:06:51.052Z,19.10
2018-11-22T10:09:38.648Z,17.67
2018-11-22T10:12:26.380Z,17.43
2018-11-22T10:14:55.196Z,15.70
2018-11-22T10:17:42.860Z,15.13
2018-11-22T10:20:31.769Z,14.10
2018-11-22T10:23:19.628Z,15.50
2018-11-22T10:26:07.327Z,15.73
2018-11-22T10:28:54.992Z,15.60
2018-11-22T10:31:42.751Z,15.13
2018-11-22T10:34:30.316Z,13.20
2018-11-22T10:37:17.887Z,13.27
2018-11-22T10:40:05.634Z,14.83
2018-11-22T10:42:53.224Z,14.50
2018-11-22T10:45:40.926Z,14.63
2018-11-22T10:48:28.614Z,14.13
2018-11-22T10:51:16.510Z,13.37
2018-11-22T10:54:04.246Z,14.37
2018-11-22T10:56:51.930Z,15.00
2018-11-22T10:59:39.728Z,15.20
2018-11-22T11:02:27.482Z,13.90
2018-11-22T11:05:15.138Z,14.33
2018-11-22T11:08:02.752Z,14.40
2018-11-22T11:10:50.438Z,14.23
2018-11-22T11:13:38.220Z,15.23
2018-11-22T11:16:25.901Z,14.77
2018-11-22T11:19:13.701Z,15.93
2018-11-22T11:22:01.370Z,13.77
2018-11-22T11:24:49.151Z,13.77
2018-11-22T11:27:36.833Z,15.10
2018-11-22T11:30:25.944Z,14.77
2018-11-22T11:33:13.629Z,14.90
2018-11-22T11:36:01.301Z,11.70
2018-11-22T11:38:48.911Z,13.70
2018-11-22T11:41:36.747Z,13.90
2018-11-22T11:44:24.457Z,13.80
2018-11-22T11:47:12.135Z,13.40
2018-11-22T11:49:59.921Z,13.23
2018-11-22T11:52:47.673Z,12.83
2018-11-22T11:55:35.412Z,12.67
2018-11-22T11:58:04.159Z,12.37
2018-11-22T12:00:51.804Z,13.57
2018-11-22T12:03:39.578Z,11.10
2018-11-22T12:06:27.369Z,12.73
2018-11-22T12:09:15.185Z,13.00
2018-11-22T12:12:02.947Z,11.07
2018-11-22T12:14:50.929Z,13.47
2018-11-22T12:17:38.611Z,12.07
2018-11-22T12:20:27.328Z,11.80
2018-11-22T12:23:15.000Z,11.93
2018-11-22T12:26:02.829Z,12.27
2018-11-22T12:28:50.573Z,12.23
2018-11-22T12:31:38.409Z,14.87
2018-11-22T12:34:26.031Z,13.10
2018-11-22T12:47:36.621Z,14.27
2018-11-22T12:50:06.568Z,14.47
2018-11-22T12:52:54.317Z,13.50
2018-11-22T12:55:42.078Z,14.63
2018-11-22T12:58:29.777Z,14.43
2018-11-22T13:01:17.628Z,15.30
2018-11-22T13:04:05.356Z,14.67
2018-11-22T13:06:53.341Z,14.10
2018-11-22T13:09:41.120Z,13.03
2018-11-22T13:12:28.894Z,13.60
2018-11-22T13:15:16.588Z,13.00
2018-11-22T13:18:04.253Z,13.90
2018-11-22T13:20:51.949Z,14.60
2018-11-22T13:23:39.716Z,14.43
2018-11-22T13:26:27.413Z,16.87
2018-11-22T13:29:15.190Z,15.20
2018-11-22T13:32:02.881Z,13.93
2018-11-22T13:34:50.671Z,15.00
2018-11-22T13:37:38.442Z,15.27
2018-11-22T13:40:27.551Z,15.07
2018-11-22T13:43:15.265Z,17.87
2018-11-22T13:46:02.924Z,16.50
2018-11-22T13:48:50.672Z,15.13
2018-11-22T13:51:38.272Z,15.70
2018-11-22T13:54:26.022Z,14.63
2018-11-22T13:57:13.738Z,16.50
2018-11-22T13:59:42.406Z,16.30
2018-11-22T14:02:30.135Z,15.83
2018-11-22T14:05:17.741Z,15.90
2018-11-22T14:08:05.416Z,16.93
2018-11-22T14:10:58.452Z,15.97
2018-11-22T14:13:40.794Z,17.37
2018-11-22T14:16:28.493Z,14.57
2018-11-22T14:19:16.318Z,15.40
2018-11-22T14:22:03.937Z,15.43
2018-11-22T14:24:51.601Z,17.70
2018-11-22T14:27:20.403Z,14.87
2018-11-22T14:30:08.023Z,16.43
2018-11-22T14:32:55.616Z,15.40
2018-11-22T14:35:43.364Z,16.20
2018-11-22T14:38:30.944Z,17.37
2018-11-22T14:41:18.650Z,14.80
2018-11-22T14:44:06.256Z,15.97
2018-11-22T14:46:53.927Z,17.60
2018-11-22T14:49:41.605Z,17.23
2018-11-22T14:52:29.272Z,16.27
2018-11-22T14:54:58.256Z,16.37
2018-11-22T14:57:45.898Z,17.00
2018-11-22T15:00:33.809Z,16.77
2018-11-22T15:03:21.662Z,17.37
2018-11-22T15:05:50.342Z,17.60
2018-11-22T15:08:37.982Z,17.13
2018-11-22T15:11:25.580Z,18.17
2018-11-22T15:13:54.424Z,16.70
2018-11-22T15:16:25.323Z,17.37
2018-11-22T15:19:13.090Z,17.77
2018-11-22T15:22:00.870Z,18.37
2018-11-22T15:24:48.544Z,16.40
2018-11-22T15:27:36.130Z,17.43
2018-11-22T15:30:25.684Z,18.87
2018-11-22T15:33:13.554Z,16.93
2018-11-22T15:36:01.230Z,17.57
2018-11-22T15:38:48.913Z,18.47
2018-11-22T15:41:36.702Z,18.00
2018-11-22T15:44:24.684Z,17.80
2018-11-22T15:47:12.360Z,17.00
2018-11-22T15:49:59.955Z,17.00
2018-11-22T15:52:47.705Z,18.97
2018-11-22T15:55:21.061Z,18.20
2018-11-22T15:57:47.285Z,17.80
2018-11-22T16:00:36.280Z,17.77
2018-11-22T16:03:23.834Z,16.47
2018-11-22T16:06:11.574Z,17.43
2018-11-22T16:08:59.345Z,17.77
2018-11-22T16:11:47.122Z,17.33
2018-11-22T16:14:34.825Z,17.53
2018-11-22T16:17:22.603Z,18.43
2018-11-22T16:20:10.216Z,16.27
2018-11-22T16:22:57.858Z,16.93
2018-11-22T16:25:26.617Z,18.20
2018-11-22T16:28:14.363Z,17.47
2018-11-22T16:31:01.965Z,16.80
2018-11-22T16:33:49.988Z,15.73
2018-11-22T16:36:37.628Z,16.30
2018-11-22T16:39:27.446Z,16.77
2018-11-22T16:42:15.140Z,17.03
2018-11-22T16:45:02.863Z,16.37
2018-11-22T16:47:31.593Z,17.77
2018-11-22T16:50:19.357Z,17.37
2018-11-22T16:53:07.125Z,16.47
2018-11-22T16:55:35.903Z,18.50
2018-11-22T16:58:23.645Z,18.03
2018-11-22T17:01:11.419Z,18.03
2018-11-22T17:03:59.020Z,18.50
2018-11-22T17:06:46.698Z,17.73
2018-11-22T17:09:34.472Z,16.30
2018-11-22T17:12:22.174Z,18.70
2018-11-22T17:15:09.708Z,18.70
2018-11-22T17:17:57.401Z,18.27
2018-11-22T17:20:45.110Z,17.30
2018-11-22T17:23:32.803Z,15.60
2018-11-22T17:26:20.394Z,14.97
2018-11-22T17:29:07.977Z,17.27
2018-11-22T17:31:55.617Z,14.93
2018-11-22T17:34:43.301Z,14.97
2018-11-22T17:37:30.863Z,16.53
2018-11-22T17:40:18.495Z,18.63
2018-11-22T17:43:06.138Z,18.40
2018-11-22T17:45:53.786Z,15.90
2018-11-22T17:48:22.414Z,18.27
2018-11-22T17:51:10.017Z,18.20
2018-11-22T17:53:57.608Z,17.77
2018-11-22T17:56:45.297Z,17.77
2018-11-22T17:59:13.854Z,19.93
2018-11-22T18:02:01.498Z,15.50
2018-11-22T18:04:49.033Z,15.73
2018-11-22T18:07:36.655Z,16.17
2018-11-22T18:10:24.441Z,18.30
2018-11-22T18:13:12.223Z,16.17
2018-11-22T18:15:59.831Z,16.80
2018-11-22T18:18:47.444Z,16.57
2018-11-22T18:21:35.100Z,16.53
2018-11-22T18:24:22.695Z,17.30
2018-11-22T18:26:58.531Z,16.80
2018-11-22T18:29:46.184Z,16.60
2018-11-22T18:32:33.902Z,16.90
2018-11-22T18:35:21.573Z,16.67
2018-11-22T18:38:09.298Z,14.23
2018-11-22T18:40:56.940Z,15.03
2018-11-22T18:46:19.285Z,16.80
2018-11-22T18:49:06.879Z,13.57
2018-11-22T18:51:35.677Z,13.60
2018-11-22T18:54:23.369Z,15.27
2018-11-22T18:57:10.953Z,14.30
2018-11-22T18:59:58.581Z,14.67
2018-11-22T19:02:46.232Z,14.50
2018-11-22T19:05:33.908Z,13.60
2018-11-22T19:08:21.595Z,14.67
2018-11-22T19:10:50.306Z,16.67
2018-11-22T19:13:37.884Z,16.57
2018-11-22T19:16:25.645Z,15.20
2018-11-22T19:19:13.250Z,17.57
2018-11-22T19:22:00.930Z,15.10
2018-11-22T19:24:48.610Z,14.70
2018-11-22T19:27:17.982Z,14.43
2018-11-22T19:29:46.583Z,15.97
2018-11-22T19:32:34.489Z,15.40
2018-11-22T19:35:22.050Z,13.37
2018-11-22T19:38:09.761Z,15.37
2018-11-22T19:40:57.436Z,14.57
2018-11-22T19:43:26.104Z,15.33
2018-11-22T19:46:13.791Z,14.70
2018-11-22T19:49:01.414Z,13.00
2018-11-22T19:51:48.984Z,13.83
2018-11-22T19:54:36.681Z,12.17
2018-11-22T19:57:24.709Z,12.57
2018-11-22T20:00:12.458Z,14.10
2018-11-22T20:03:00.048Z,14.97
2018-11-22T20:05:47.646Z,14.80
2018-11-22T20:08:19.110Z,15.00
2018-11-22T20:10:48.096Z,14.40
2018-11-22T20:13:35.903Z,15.27
2018-11-22T20:16:23.882Z,15.90
2018-11-22T20:19:11.552Z,18.30
2018-11-22T20:21:40.258Z,16.90
2018-11-22T20:24:08.838Z,21.17
2018-11-22T20:26:56.474Z,19.30
2018-11-22T20:29:44.074Z,16.67
2018-11-22T20:32:38.669Z,17.60
2018-11-22T20:35:19.514Z,16.37
2018-11-22T20:38:07.272Z,16.53
2018-11-22T20:40:57.447Z,16.57
2018-11-22T20:43:42.542Z,14.93
2018-11-22T20:46:11.358Z,14.47
2018-11-22T20:48:40.051Z,14.00
2018-11-22T20:51:27.625Z,14.80
2018-11-22T20:54:15.424Z,15.53
2018-11-22T20:57:03.083Z,14.60
2018-11-22T20:59:50.819Z,13.80
2018-11-22T21:02:38.415Z,15.10
2018-11-22T21:05:26.206Z,13.87
2018-11-22T21:08:13.794Z,14.70
2018-11-22T21:10:42.496Z,14.27
2018-11-22T21:13:30.014Z,14.33
2018-11-22T21:16:17.796Z,15.27
2018-11-22T21:19:05.396Z,14.30
2018-11-22T21:21:53.158Z,15.93
2018-11-22T21:24:21.799Z,13.70
2018-11-22T21:27:09.479Z,14.27
2018-11-22T21:29:57.237Z,16.30
2018-11-22T21:32:44.832Z,13.80
2018-11-22T21:35:32.395Z,15.77
2018-11-22T21:38:20.014Z,15.63
2018-11-22T21:41:07.729Z,15.20
2018-11-22T21:43:55.347Z,16.60
2018-11-22T21:46:42.911Z,15.67
2018-11-22T21:51:45.699Z,16.00
2018-11-22T21:54:33.412Z,17.60
2018-11-22T21:57:21.017Z,15.37
2018-11-22T22:00:08.649Z,15.40
2018-11-22T22:02:37.199Z,17.33
2018-11-22T22:05:25.409Z,17.60
2018-11-22T22:08:13.094Z,18.70
2018-11-22T22:11:00.759Z,17.37
2018-11-22T22:13:48.454Z,19.13
2018-11-22T22:16:36.434Z,16.10
2018-11-22T22:19:23.914Z,18.03
2018-11-22T22:22:11.651Z,20.00
2018-11-22T22:24:59.206Z,20.03
2018-11-22T22:27:46.862Z,18.93
2018-11-22T22:30:34.567Z,20.20
2018-11-22T22:33:22.282Z,18.90
2018-11-22T22:35:50.903Z,18.63
2018-11-22T22:38:19.726Z,19.70
2018-11-22T22:40:59.118Z,19.57
2018-11-22T22:43:26.545Z,19.13
2018-11-22T22:46:14.283Z,19.70
2018-11-22T22:49:01.906Z,17.63
2018-11-22T22:51:30.490Z,19.60
2018-11-22T22:54:18.124Z,18.90
2018-11-22T22:59:21.682Z,15.33
2018-11-22T23:02:09.382Z,17.90
2018-11-22T23:04:56.978Z,18.13
2018-11-22T23:07:44.659Z,15.27
2018-11-22T23:10:32.255Z,18.80
2018-11-22T23:13:19.870Z,16.97
2018-11-22T23:16:07.636Z,16.90
2018-11-22T23:18:55.531Z,16.00
2018-11-22T23:21:24.253Z,16.57
2018-11-22T23:23:52.926Z,17.17
2018-11-22T23:26:40.591Z,17.53
2018-11-22T23:29:28.204Z,14.60
2018-11-22T23:32:16.101Z,16.80
2018-11-22T23:35:03.562Z,14.60
2018-11-22T23:37:51.234Z,15.13
2018-11-22T23:40:21.137Z,15.37
2018-11-22T23:43:08.870Z,14.60
2018-11-22T23:45:56.558Z,16.67
2018-11-22T23:48:44.146Z,16.33
2018-11-22T23:51:31.697Z,15.00
2018-11-22T23:54:19.435Z,15.43
2018-11-22T23:57:07.065Z,18.07
2018-11-22T23:59:35.782Z,15.43
